createdAt,value
2017-12-29T00:00:30.682Z,16.2
2017-12-29T00:01:35.577Z,16.1
2017-12-29T00:02:42.801Z,16.3
2017-12-29T00:03:46.574Z,16.2
2017-12-29T00:04:49.452Z,16.2
2017-12-29T00:05:51.969Z,16.2
2017-12-29T00:06:54.964Z,16.2
2017-12-29T00:07:59.523Z,16.2
2017-12-29T00:09:03.370Z,16.2
2017-12-29T00:10:08.535Z,16.2
2017-12-29T00:11:12.375Z,16.2
2017-12-29T00:12:20.058Z,16.1
2017-12-29T00:13:26.183Z,16.2
2017-12-29T00:14:31.346Z,16.3
2017-12-29T00:15:34.184Z,16.1
2017-12-29T00:16:38.632Z,16.1
2017-12-29T00:17:45.262Z,16.1
2017-12-29T00:18:50.201Z,16.2
2017-12-29T00:19:55.174Z,16
2017-12-29T00:20:58.818Z,16.1
2017-12-29T00:22:03.641Z,16.1
2017-12-29T00:23:12.295Z,16.2
2017-12-29T00:24:16.646Z,16.1
2017-12-29T00:25:21.375Z,16.1
2017-12-29T00:26:24.121Z,16.1
2017-12-29T00:27:29.029Z,16.1
2017-12-29T00:28:34.144Z,16.1
2017-12-29T00:28:54.429Z,15.3
2017-12-29T00:29:58.717Z,13.2
2017-12-29T00:31:03.373Z,12
2017-12-29T00:32:07.482Z,11.3
2017-12-29T00:33:11.391Z,10.9
2017-12-29T00:34:15.813Z,10.7
2017-12-29T00:35:20.460Z,10.6
2017-12-29T00:36:23.426Z,10.4
2017-12-29T00:37:26.571Z,10.4
2017-12-29T00:38:29.582Z,10
2017-12-29T00:39:35.178Z,9.9
2017-12-29T00:40:37.689Z,10.1
2017-12-29T00:41:41.934Z,10
2017-12-29T00:42:45.850Z,10.1
2017-12-29T00:43:50.052Z,9.7
2017-12-29T00:44:53.726Z,9.8
2017-12-29T00:45:57.162Z,9.8
2017-12-29T00:47:00.242Z,9.5
2017-12-29T00:48:04.269Z,9.1
2017-12-29T00:49:06.882Z,9.4
2017-12-29T00:50:10.418Z,9.6
2017-12-29T00:51:16.450Z,9.5
2017-12-29T00:52:20.884Z,9.4
2017-12-29T00:53:24.771Z,9.6
2017-12-29T00:54:29.723Z,9.6
2017-12-29T00:55:32.887Z,9.6
2017-12-29T00:56:36.312Z,9.4
2017-12-29T00:57:39.239Z,9.8
2017-12-29T00:58:43.218Z,9.3
2017-12-29T00:59:49.378Z,9.1
2017-12-29T01:00:53.968Z,9.2
2017-12-29T01:01:58.422Z,9.2
2017-12-29T01:03:02.099Z,9.3
2017-12-29T01:04:06.522Z,9
2017-12-29T01:05:09.062Z,9
2017-12-29T01:06:11.732Z,9.3
2017-12-29T01:07:17.007Z,8.9
2017-12-29T01:09:30.672Z,8.8
2017-12-29T01:10:36.592Z,9.2
2017-12-29T01:11:40.916Z,9.1
2017-12-29T01:12:44.637Z,8.9
2017-12-29T01:13:47.886Z,9.1
2017-12-29T01:14:56.963Z,8.6
2017-12-29T01:16:03.280Z,8.6
2017-12-29T01:17:12.608Z,8.7
2017-12-29T01:18:15.853Z,8.7
2017-12-29T01:19:18.560Z,8.9
2017-12-29T01:20:22.542Z,8.7
2017-12-29T01:21:26.831Z,8.6
2017-12-29T01:22:30.398Z,8.7
2017-12-29T01:23:32.986Z,8.6
2017-12-29T01:24:35.576Z,8.6
2017-12-29T01:25:38.433Z,8.6
2017-12-29T01:26:42.232Z,8.5
2017-12-29T01:27:47.602Z,8.8
2017-12-29T01:28:52.660Z,8.5
2017-12-29T01:29:58.852Z,8.4
2017-12-29T01:31:04.350Z,8.3
2017-12-29T01:32:08.573Z,8
2017-12-29T01:33:11.651Z,7.9
2017-12-29T01:34:16.053Z,8.2
2017-12-29T01:35:22.581Z,8.1
2017-12-29T01:36:27.636Z,8.1
2017-12-29T01:37:33.663Z,7.9
2017-12-29T01:38:42.814Z,8.1
2017-12-29T01:39:47.767Z,7.9
2017-12-29T01:40:54.652Z,8
2017-12-29T01:41:58.272Z,7.8
2017-12-29T01:43:07.688Z,8
2017-12-29T01:44:12.154Z,7.8
2017-12-29T01:45:18.702Z,7.8
2017-12-29T01:46:24.235Z,7.8
2017-12-29T01:47:31.174Z,7.9
2017-12-29T01:48:37.239Z,7.8
2017-12-29T01:49:41.069Z,7.7
2017-12-29T01:50:43.673Z,7.7
2017-12-29T01:51:47.259Z,7.8
2017-12-29T01:52:52.414Z,7.8
2017-12-29T01:53:57.572Z,7.9
2017-12-29T01:55:02.294Z,7.7
2017-12-29T01:56:05.855Z,7.7
2017-12-29T01:57:08.437Z,7.6
2017-12-29T01:58:11.058Z,7.5
2017-12-29T01:59:15.166Z,7.7
2017-12-29T02:00:17.667Z,7.7
2017-12-29T02:01:20.193Z,7.7
2017-12-29T02:02:26.376Z,7.8
2017-12-29T02:03:29.788Z,7.8
2017-12-29T02:04:35.429Z,7.4
2017-12-29T02:05:43.609Z,7.7
2017-12-29T02:06:48.237Z,7.3
2017-12-29T02:07:53.172Z,7.8
2017-12-29T02:08:58.335Z,7.7
2017-12-29T02:10:03.430Z,7.7
2017-12-29T02:11:08.044Z,7.3
2017-12-29T02:12:12.436Z,7.4
2017-12-29T02:13:16.815Z,7.3
2017-12-29T02:14:20.318Z,7.1
2017-12-29T02:15:23.684Z,7.4
2017-12-29T02:16:28.457Z,7.4
2017-12-29T02:17:32.689Z,7.5
2017-12-29T02:18:36.800Z,7.5
2017-12-29T02:19:41.356Z,7.5
2017-12-29T02:20:46.034Z,7.4
2017-12-29T02:21:51.024Z,7.4
2017-12-29T02:22:55.958Z,7.2
2017-12-29T02:24:03.642Z,7.2
2017-12-29T02:25:07.394Z,7
2017-12-29T02:26:11.900Z,6.9
2017-12-29T02:27:26.732Z,6.6
2017-12-29T02:28:31.101Z,7.1
2017-12-29T02:29:35.003Z,7.1
2017-12-29T02:30:39.577Z,7.1
2017-12-29T02:31:45.555Z,7.1
2017-12-29T02:32:49.631Z,6.7
2017-12-29T02:33:54.508Z,6.8
2017-12-29T02:34:58.781Z,7
2017-12-29T02:36:02.509Z,7
2017-12-29T02:37:10.641Z,7.1
2017-12-29T02:38:16.492Z,6.9
2017-12-29T02:39:21.858Z,7.2
2017-12-29T02:40:32.686Z,6.7
2017-12-29T02:41:37.621Z,7.1
2017-12-29T02:42:42.188Z,7
2017-12-29T02:43:46.263Z,6.8
2017-12-29T02:44:51.604Z,6.7
2017-12-29T02:45:57.432Z,6.6
2017-12-29T02:47:03.467Z,6.5
2017-12-29T02:48:08.778Z,6.4
2017-12-29T02:49:11.986Z,6.7
2017-12-29T02:50:15.055Z,6.8
2017-12-29T02:51:23.766Z,6.4
2017-12-29T02:52:28.398Z,7
2017-12-29T02:53:33.766Z,6.9
2017-12-29T02:54:38.066Z,6.9
2017-12-29T02:55:40.630Z,6.7
2017-12-29T02:56:43.091Z,6.6
2017-12-29T02:57:45.687Z,6.7
2017-12-29T02:58:49.944Z,6.6
2017-12-29T02:59:55.767Z,6.9
2017-12-29T03:01:01.131Z,6.9
2017-12-29T03:02:06.007Z,6.8
2017-12-29T03:03:13.720Z,6.7
2017-12-29T03:04:20.209Z,6.7
2017-12-29T03:05:25.686Z,6.6
2017-12-29T03:06:30.120Z,6.8
2017-12-29T03:07:34.663Z,6.5
2017-12-29T03:08:39.448Z,6.8
2017-12-29T03:09:42.636Z,6.8
2017-12-29T03:10:47.346Z,7
2017-12-29T03:11:51.968Z,7
2017-12-29T03:12:56.036Z,6.9
2017-12-29T03:14:00.139Z,7
2017-12-29T03:15:05.226Z,7
2017-12-29T03:16:09.107Z,7
2017-12-29T03:17:13.766Z,6.9
2017-12-29T03:18:18.147Z,7.2
2017-12-29T03:19:22.804Z,6.8
2017-12-29T03:20:27.339Z,7.2
2017-12-29T03:21:31.482Z,7.1
2017-12-29T03:22:36.548Z,7.1
2017-12-29T03:23:39.742Z,7
2017-12-29T03:24:43.923Z,7.2
2017-12-29T03:25:47.686Z,7.2
2017-12-29T03:26:50.602Z,7.2
2017-12-29T03:27:54.197Z,6.8
2017-12-29T03:28:58.944Z,7
2017-12-29T03:30:03.142Z,7.4
2017-12-29T03:31:08.084Z,7.2
2017-12-29T03:32:14.460Z,7.1
2017-12-29T03:33:21.472Z,7.2
2017-12-29T03:34:28.868Z,7
2017-12-29T03:35:33.567Z,7.1
2017-12-29T03:36:39.739Z,7.2
2017-12-29T03:37:47.615Z,7.1
2017-12-29T03:38:53.066Z,6.7
2017-12-29T03:39:57.781Z,6.9
2017-12-29T03:41:03.940Z,7.1
2017-12-29T03:42:11.302Z,7.2
2017-12-29T03:43:17.331Z,7.1
2017-12-29T03:44:24.211Z,6.9
2017-12-29T03:45:28.657Z,7.1
2017-12-29T03:46:34.066Z,7.2
2017-12-29T03:47:38.634Z,7.1
2017-12-29T03:48:42.355Z,7.1
2017-12-29T03:49:48.836Z,6.8
2017-12-29T03:50:55.349Z,7
2017-12-29T03:52:00.138Z,6.9
2017-12-29T03:53:05.806Z,6.8
2017-12-29T03:54:12.191Z,6.9
2017-12-29T03:55:16.943Z,6.9
2017-12-29T03:56:19.849Z,7.1
2017-12-29T03:57:23.576Z,7
2017-12-29T03:58:28.354Z,6.9
2017-12-29T03:59:33.263Z,6.8
2017-12-29T04:00:36.590Z,6.6
2017-12-29T04:01:39.096Z,6.7
2017-12-29T04:02:41.656Z,6.7
2017-12-29T04:03:44.152Z,6.7
2017-12-29T04:04:46.719Z,6.7
2017-12-29T04:05:49.226Z,6.7
2017-12-29T04:06:53.167Z,6.3
2017-12-29T04:07:58.784Z,6.9
2017-12-29T04:09:02.966Z,7.1
2017-12-29T04:10:06.207Z,6.9
2017-12-29T04:11:08.710Z,6.9
2017-12-29T04:12:11.687Z,6.8
2017-12-29T04:13:17.535Z,6.9
2017-12-29T04:14:22.414Z,7.2
2017-12-29T04:15:28.943Z,6.9
2017-12-29T04:16:34.736Z,6.8
2017-12-29T04:17:38.501Z,6.9
2017-12-29T04:18:47.541Z,6.8
2017-12-29T04:19:53.574Z,6.8
2017-12-29T04:20:58.485Z,6.8
2017-12-29T04:22:04.906Z,7
2017-12-29T04:23:09.683Z,6.8
2017-12-29T04:24:16.401Z,7
2017-12-29T04:25:21.115Z,7.1
2017-12-29T04:26:26.662Z,6.7
2017-12-29T04:27:30.353Z,6.8
2017-12-29T04:28:35.433Z,6.8
2017-12-29T04:29:37.927Z,6.8
2017-12-29T04:30:40.482Z,6.7
2017-12-29T04:31:42.936Z,6.6
2017-12-29T04:32:45.496Z,6.7
2017-12-29T04:33:48.094Z,6.7
2017-12-29T04:34:50.568Z,6.5
2017-12-29T04:35:53.066Z,6.8
2017-12-29T04:36:55.616Z,6.8
2017-12-29T04:37:58.118Z,7
2017-12-29T04:39:00.615Z,6.8
2017-12-29T04:40:03.155Z,6.7
2017-12-29T04:41:05.704Z,6.7
2017-12-29T04:42:08.244Z,6.6
2017-12-29T04:43:10.801Z,6.6
2017-12-29T04:44:13.258Z,6.4
2017-12-29T04:45:15.847Z,6.4
2017-12-29T04:46:18.317Z,6.3
2017-12-29T04:47:20.849Z,6.5
2017-12-29T04:48:23.367Z,6.6
2017-12-29T04:49:25.880Z,6.6
2017-12-29T04:50:28.394Z,6.4
2017-12-29T04:51:31.184Z,6.2
2017-12-29T04:52:33.713Z,6.4
2017-12-29T04:53:36.179Z,6.4
2017-12-29T04:54:38.690Z,6.6
2017-12-29T04:55:41.145Z,6.6
2017-12-29T04:56:43.630Z,6.4
2017-12-29T04:57:46.232Z,6.7
2017-12-29T04:58:48.746Z,6.5
2017-12-29T04:59:51.274Z,6.6
2017-12-29T05:00:53.777Z,6.8
2017-12-29T05:01:56.264Z,6.9
2017-12-29T05:02:58.702Z,6.6
2017-12-29T05:04:01.275Z,6.7
2017-12-29T05:05:03.831Z,6.7
2017-12-29T05:06:06.299Z,6.6
2017-12-29T05:07:08.861Z,6.7
2017-12-29T05:08:11.326Z,6.6
2017-12-29T05:09:13.759Z,6.4
2017-12-29T05:10:16.284Z,6.6
2017-12-29T05:11:18.845Z,6.8
2017-12-29T05:12:21.316Z,7
2017-12-29T05:13:23.794Z,6.9
2017-12-29T05:14:26.278Z,6.8
2017-12-29T05:15:28.742Z,6.8
2017-12-29T05:16:31.280Z,6.7
2017-12-29T05:17:33.757Z,7
2017-12-29T05:18:36.277Z,7
2017-12-29T05:19:38.740Z,6.8
2017-12-29T05:20:41.276Z,6.8
2017-12-29T05:21:43.781Z,6.9
2017-12-29T05:22:46.297Z,6.9
2017-12-29T05:23:48.766Z,6.8
2017-12-29T05:24:51.268Z,6.9
2017-12-29T05:25:53.815Z,6.7
2017-12-29T05:26:56.281Z,6.9
2017-12-29T05:27:58.748Z,6.8
2017-12-29T05:29:01.498Z,6.7
2017-12-29T05:30:03.965Z,6.7
2017-12-29T05:31:06.739Z,6.9
2017-12-29T05:32:09.336Z,7
2017-12-29T05:33:11.796Z,6.8
2017-12-29T05:34:14.263Z,7
2017-12-29T05:35:16.871Z,6.9
2017-12-29T05:36:19.365Z,6.8
2017-12-29T05:37:21.802Z,6.7
2017-12-29T05:38:24.289Z,7.1
2017-12-29T05:39:26.742Z,7
2017-12-29T05:40:29.325Z,7
2017-12-29T05:41:31.818Z,7
2017-12-29T05:42:34.258Z,6.8
2017-12-29T05:43:37.190Z,7
2017-12-29T05:44:39.731Z,7
2017-12-29T05:45:42.249Z,7.2
2017-12-29T05:46:44.693Z,7.3
2017-12-29T05:47:47.222Z,7.2
2017-12-29T05:48:49.724Z,7
2017-12-29T05:49:52.252Z,7
2017-12-29T05:50:54.793Z,6.9
2017-12-29T05:51:57.328Z,6.7
2017-12-29T05:52:59.786Z,6.9
2017-12-29T05:54:02.343Z,7.2
2017-12-29T05:55:04.830Z,7.3
2017-12-29T05:56:07.377Z,7.1
2017-12-29T05:57:09.838Z,7.3
2017-12-29T05:58:12.318Z,7.2
2017-12-29T05:59:14.853Z,7.2
2017-12-29T06:00:17.458Z,7.3
2017-12-29T06:01:21.627Z,7.2
2017-12-29T06:02:25.046Z,6.7
2017-12-29T06:03:27.562Z,6.8
2017-12-29T06:04:29.997Z,6.9
2017-12-29T06:05:32.486Z,6.9
2017-12-29T06:06:34.959Z,6.9
2017-12-29T06:07:37.529Z,7.2
2017-12-29T06:08:39.987Z,6.9
2017-12-29T06:09:42.497Z,7
2017-12-29T06:10:44.967Z,7
2017-12-29T06:11:47.576Z,7.1
2017-12-29T06:12:50.058Z,7
2017-12-29T06:13:52.513Z,6.9
2017-12-29T06:14:55.029Z,6.9
2017-12-29T06:16:00.420Z,6.8
2017-12-29T06:17:02.961Z,6.8
2017-12-29T06:18:05.498Z,6.9
2017-12-29T06:19:07.990Z,6.9
2017-12-29T06:20:10.481Z,6.9
2017-12-29T06:21:12.913Z,7.2
2017-12-29T06:22:16.516Z,7.2
2017-12-29T06:23:19.849Z,6.9
2017-12-29T06:24:22.382Z,7.2
2017-12-29T06:25:24.884Z,7.2
2017-12-29T06:26:27.413Z,7.1
2017-12-29T06:27:29.841Z,7
2017-12-29T06:28:32.282Z,7.1
2017-12-29T06:29:34.790Z,7.2
2017-12-29T06:30:37.462Z,7.2
2017-12-29T06:31:39.946Z,7.1
2017-12-29T06:32:42.412Z,7.1
2017-12-29T06:33:50.523Z,6.8
2017-12-29T06:34:53.067Z,6.9
2017-12-29T06:35:55.593Z,6.6
2017-12-29T06:36:58.188Z,6.8
2017-12-29T06:38:00.767Z,6.7
2017-12-29T06:39:03.238Z,6.9
2017-12-29T06:40:05.736Z,6.8
2017-12-29T06:41:08.283Z,7
2017-12-29T06:42:10.845Z,7.1
2017-12-29T06:43:13.413Z,7
2017-12-29T06:44:16.000Z,6.9
2017-12-29T06:45:18.653Z,6.9
2017-12-29T06:46:21.266Z,7.1
2017-12-29T06:47:23.764Z,6.8
2017-12-29T06:48:26.298Z,7
2017-12-29T06:49:28.930Z,7.1
2017-12-29T06:50:31.716Z,7.3
2017-12-29T06:51:34.283Z,7
2017-12-29T06:52:36.832Z,7.1
2017-12-29T06:53:39.355Z,6.9
2017-12-29T06:54:41.876Z,6.6
2017-12-29T06:55:44.351Z,6.6
2017-12-29T06:56:46.829Z,6.4
2017-12-29T06:57:49.331Z,6.6
2017-12-29T06:58:51.870Z,6.7
2017-12-29T06:59:54.422Z,6.6
2017-12-29T07:00:56.949Z,6.5
2017-12-29T07:01:59.582Z,6.6
2017-12-29T07:03:02.347Z,6.8
2017-12-29T07:04:04.877Z,6.9
2017-12-29T07:05:07.501Z,6.6
2017-12-29T07:06:09.995Z,6.4
2017-12-29T07:07:12.464Z,6.8
2017-12-29T07:08:15.011Z,6.9
2017-12-29T07:09:17.676Z,6.8
2017-12-29T07:10:20.233Z,6.8
2017-12-29T07:11:22.726Z,6.7
2017-12-29T07:12:31.302Z,6.9
2017-12-29T07:13:33.794Z,6.7
2017-12-29T07:14:36.278Z,7
2017-12-29T07:15:38.844Z,6.9
2017-12-29T07:16:41.440Z,7
2017-12-29T07:17:44.055Z,7.1
2017-12-29T07:18:46.580Z,7.2
2017-12-29T07:19:49.144Z,7.2
2017-12-29T07:20:51.762Z,7.3
2017-12-29T07:21:54.259Z,6.9
2017-12-29T07:22:56.872Z,7.3
2017-12-29T07:23:59.590Z,7.2
2017-12-29T07:25:02.206Z,7.2
2017-12-29T07:26:04.765Z,7
2017-12-29T07:27:07.391Z,6.9
2017-12-29T07:28:11.674Z,6.8
2017-12-29T07:29:14.249Z,6.4
2017-12-29T07:30:16.781Z,6.8
2017-12-29T07:31:19.397Z,6.7
2017-12-29T07:32:21.923Z,6.9
2017-12-29T07:33:24.474Z,7
2017-12-29T07:34:27.022Z,7.1
2017-12-29T07:35:29.548Z,6.9
2017-12-29T07:36:33.001Z,6.8
2017-12-29T07:37:35.498Z,6.7
2017-12-29T07:38:38.060Z,6.8
2017-12-29T07:39:40.765Z,7
2017-12-29T07:40:43.443Z,7.2
2017-12-29T07:41:45.951Z,7.2
2017-12-29T07:42:48.606Z,7.4
2017-12-29T07:43:51.060Z,7.2
2017-12-29T07:44:53.549Z,7.3
2017-12-29T07:45:56.127Z,7.3
2017-12-29T07:46:58.726Z,7.2
2017-12-29T07:48:01.263Z,7.2
2017-12-29T07:49:04.104Z,7.1
2017-12-29T07:50:06.731Z,7.4
2017-12-29T07:51:09.261Z,7.3
2017-12-29T07:52:11.855Z,7.3
2017-12-29T07:53:14.825Z,7.6
2017-12-29T07:54:17.682Z,7.8
2017-12-29T07:55:25.448Z,7.7
2017-12-29T07:56:28.124Z,7.5
2017-12-29T07:57:30.649Z,7.1
2017-12-29T07:58:33.286Z,7.2
2017-12-29T07:59:35.770Z,7.3
2017-12-29T08:00:38.417Z,7.5
2017-12-29T08:01:40.907Z,7.4
2017-12-29T08:02:43.387Z,7.4
2017-12-29T08:03:45.938Z,7.6
2017-12-29T08:04:48.489Z,7.2
2017-12-29T08:05:51.019Z,7.1
2017-12-29T08:06:53.479Z,7.2
2017-12-29T08:07:55.959Z,7.3
2017-12-29T08:08:58.511Z,7.3
2017-12-29T08:10:01.236Z,7.4
2017-12-29T08:11:03.705Z,7.6
2017-12-29T08:12:06.267Z,7.5
2017-12-29T08:13:08.912Z,7.2
2017-12-29T08:14:11.597Z,7.2
2017-12-29T08:15:14.179Z,7
2017-12-29T08:16:16.777Z,7
2017-12-29T08:17:24.515Z,6.9
2017-12-29T08:18:27.001Z,7.1
2017-12-29T08:19:29.560Z,7.1
2017-12-29T08:21:46.900Z,7
2017-12-29T08:22:49.456Z,6.8
2017-12-29T08:23:52.007Z,6.7
2017-12-29T08:24:54.601Z,6.8
2017-12-29T08:25:57.122Z,6.8
2017-12-29T08:26:59.749Z,6.8
2017-12-29T08:28:02.516Z,7.8
2017-12-29T08:29:05.255Z,8.9
2017-12-29T08:30:07.976Z,9.9
2017-12-29T08:31:10.609Z,10.6
2017-12-29T08:32:13.203Z,10.9
2017-12-29T08:33:15.782Z,11.3
2017-12-29T08:34:18.444Z,11.4
2017-12-29T08:35:21.004Z,11.6
2017-12-29T08:36:24.003Z,11.6
2017-12-29T08:37:26.612Z,11.8
2017-12-29T08:38:29.246Z,12.2
2017-12-29T08:39:31.875Z,12.3
2017-12-29T08:40:34.430Z,12.4
2017-12-29T08:41:37.040Z,12.4
2017-12-29T08:42:39.736Z,12.5
2017-12-29T08:43:44.485Z,12.6
2017-12-29T08:44:47.077Z,12.6
2017-12-29T08:45:49.697Z,12.6
2017-12-29T08:46:52.328Z,12.6
2017-12-29T08:47:54.821Z,12.7
2017-12-29T08:48:57.439Z,12.7
2017-12-29T08:50:00.058Z,12.7
2017-12-29T08:51:02.706Z,12.8
2017-12-29T08:52:05.489Z,12.7
2017-12-29T08:53:08.199Z,12.8
2017-12-29T08:54:11.386Z,12.8
2017-12-29T08:55:15.305Z,12.6
2017-12-29T08:56:20.231Z,12.7
2017-12-29T08:57:24.218Z,12.8
2017-12-29T08:58:28.912Z,12.8
2017-12-29T08:59:39.191Z,12.9
2017-12-29T09:00:43.711Z,13.3
2017-12-29T09:01:47.821Z,13.8
2017-12-29T09:02:51.780Z,14.1
2017-12-29T09:03:57.191Z,14.4
2017-12-29T09:05:01.747Z,14.3
2017-12-29T09:06:06.354Z,14.4
2017-12-29T09:07:11.182Z,14.6
2017-12-29T09:08:16.138Z,14.7
2017-12-29T09:09:20.169Z,15
2017-12-29T09:10:24.984Z,15.2
2017-12-29T09:11:29.822Z,15.3
2017-12-29T09:12:33.832Z,15.5
2017-12-29T09:13:39.355Z,15.8
2017-12-29T09:14:43.319Z,16
2017-12-29T09:15:47.380Z,16.2
2017-12-29T09:16:56.773Z,16
2017-12-29T09:18:00.876Z,16.4
2017-12-29T09:19:05.807Z,16.7
2017-12-29T09:20:10.089Z,16.8
2017-12-29T09:21:14.146Z,16.9
2017-12-29T09:22:18.381Z,17
2017-12-29T09:23:21.937Z,17.3
2017-12-29T09:24:25.791Z,17
2017-12-29T09:25:28.483Z,17.2
2017-12-29T09:26:31.419Z,17.2
2017-12-29T09:27:35.977Z,16.8
2017-12-29T09:28:38.811Z,17
2017-12-29T09:29:41.704Z,17
2017-12-29T09:30:44.808Z,17.2
2017-12-29T09:31:48.481Z,17.1
2017-12-29T09:32:51.377Z,17.4
2017-12-29T09:33:54.027Z,17.7
2017-12-29T09:34:56.794Z,17.5
2017-12-29T09:35:59.408Z,17.3
2017-12-29T09:37:02.209Z,17.1
2017-12-29T09:38:04.813Z,17.3
2017-12-29T09:39:07.679Z,17.3
2017-12-29T09:40:10.476Z,17.5
2017-12-29T09:41:13.128Z,17.7
2017-12-29T09:42:22.783Z,18
2017-12-29T09:43:25.359Z,18
2017-12-29T09:44:28.067Z,17.9
2017-12-29T09:45:30.641Z,17.9
2017-12-29T09:46:33.244Z,18.2
2017-12-29T09:47:35.873Z,18.3
2017-12-29T09:48:38.542Z,17.9
2017-12-29T09:49:41.099Z,18.1
2017-12-29T09:50:43.674Z,18
2017-12-29T09:51:46.310Z,17.9
2017-12-29T09:52:49.010Z,17.8
2017-12-29T09:53:51.671Z,17.9
2017-12-29T09:54:54.362Z,17.8
2017-12-29T09:55:57.511Z,17.6
2017-12-29T09:57:00.152Z,17.4
2017-12-29T09:58:06.053Z,17.2
2017-12-29T09:59:08.850Z,17.5
2017-12-29T10:00:16.540Z,17.5
2017-12-29T10:01:19.577Z,17.5
2017-12-29T10:02:30.099Z,17.2
2017-12-29T10:03:32.934Z,17.2
2017-12-29T10:04:35.483Z,17.2
2017-12-29T10:05:39.594Z,17.2
2017-12-29T10:12:47.959Z,17.1
2017-12-29T10:22:28.292Z,16.6
2017-12-29T10:23:31.088Z,16.4
2017-12-29T10:24:33.953Z,16.3
2017-12-29T10:25:37.025Z,16.1
2017-12-29T10:26:39.700Z,16.2
2017-12-29T10:27:42.366Z,16.3
2017-12-29T10:28:45.210Z,16.2
2017-12-29T10:29:48.446Z,16.2
2017-12-29T10:30:51.179Z,16.3
2017-12-29T10:31:53.815Z,16.4
2017-12-29T10:32:56.490Z,16.4
2017-12-29T10:33:59.383Z,16.2
2017-12-29T10:35:03.459Z,16.4
2017-12-29T10:36:06.360Z,16.5
2017-12-29T10:37:09.099Z,16.5
2017-12-29T10:38:12.601Z,16.4
2017-12-29T10:39:16.326Z,16.5
2017-12-29T10:40:19.726Z,16.4
2017-12-29T10:41:22.466Z,16.6
2017-12-29T10:42:25.500Z,16.8
2017-12-29T10:44:47.026Z,16.5
2017-12-29T10:45:49.876Z,16.7
2017-12-29T10:46:52.564Z,16.5
2017-12-29T10:47:55.319Z,16.4
2017-12-29T10:48:58.257Z,16.4
2017-12-29T10:50:00.971Z,16.5
2017-12-29T10:51:03.738Z,16.4
2017-12-29T10:52:06.430Z,16.3
2017-12-29T10:53:09.395Z,16.3
2017-12-29T10:54:16.760Z,16.3
2017-12-29T10:55:20.915Z,16.5
2017-12-29T10:56:27.723Z,16.6
2017-12-29T10:57:30.573Z,16.5
2017-12-29T10:58:33.241Z,16.5
2017-12-29T10:59:35.990Z,16.3
2017-12-29T11:00:38.777Z,16.3
2017-12-29T11:01:41.352Z,16.4
2017-12-29T11:02:44.062Z,16.4
2017-12-29T11:03:46.730Z,16.3
2017-12-29T11:04:49.608Z,16.5
2017-12-29T11:05:52.964Z,16.4
2017-12-29T11:06:55.651Z,16.3
2017-12-29T11:07:58.304Z,16.4
2017-12-29T11:09:01.070Z,16.6
2017-12-29T11:10:04.923Z,16.5
2017-12-29T11:11:07.646Z,16.5
2017-12-29T11:12:10.636Z,16.5
2017-12-29T11:13:13.392Z,16.5
2017-12-29T11:14:16.196Z,16.5
2017-12-29T11:15:18.972Z,16.6
2017-12-29T11:16:21.561Z,16.5
2017-12-29T11:17:24.179Z,16.6
2017-12-29T11:18:32.088Z,16.6
2017-12-29T11:19:34.799Z,16.5
2017-12-29T11:20:37.501Z,16.5
2017-12-29T11:21:40.269Z,16.4
2017-12-29T11:22:43.026Z,16.4
2017-12-29T11:23:45.708Z,16.6
2017-12-29T11:25:00.679Z,16.5
2017-12-29T11:26:04.585Z,16.6
2017-12-29T11:27:07.524Z,16.5
2017-12-29T11:28:11.683Z,16.6
2017-12-29T11:29:14.435Z,16.5
2017-12-29T11:30:16.964Z,16.5
2017-12-29T11:31:26.111Z,16.4
2017-12-29T11:32:29.504Z,16.5
2017-12-29T11:33:33.197Z,16.7
2017-12-29T11:34:35.842Z,16.6
2017-12-29T11:35:44.159Z,16.6
2017-12-29T11:36:48.024Z,16.6
2017-12-29T11:37:50.823Z,16.6
2017-12-29T11:38:53.720Z,16.5
2017-12-29T11:39:56.448Z,16.5
2017-12-29T11:41:05.191Z,16.5
2017-12-29T11:42:08.140Z,16.4
2017-12-29T11:43:10.918Z,16.6
2017-12-29T11:44:13.836Z,16.6
2017-12-29T11:45:16.614Z,16.6
2017-12-29T11:46:19.507Z,16.6
2017-12-29T11:47:26.580Z,16.6
2017-12-29T11:48:29.606Z,16.7
2017-12-29T11:49:32.674Z,16.6
2017-12-29T11:50:42.251Z,16.7
2017-12-29T11:51:54.538Z,16.6
2017-12-29T11:53:02.737Z,16.6
2017-12-29T11:54:07.190Z,16.6
2017-12-29T11:55:11.212Z,16.7
2017-12-29T11:56:14.833Z,16.7
2017-12-29T11:57:24.073Z,16.5
2017-12-29T11:58:32.642Z,16.6
2017-12-29T11:59:35.969Z,16.9
2017-12-29T12:00:39.354Z,17.2
2017-12-29T12:01:48.122Z,17.5
2017-12-29T12:02:51.424Z,17.7
2017-12-29T12:03:54.406Z,17.9
2017-12-29T12:04:57.330Z,17.9
2017-12-29T12:06:00.458Z,18.1
2017-12-29T12:08:16.361Z,18.6
2017-12-29T12:09:19.164Z,18.5
2017-12-29T12:10:22.170Z,18.8
2017-12-29T12:11:24.805Z,18.7
2017-12-29T12:13:42.879Z,19.1
2017-12-29T12:14:45.790Z,18.8
2017-12-29T12:15:49.984Z,18.8
2017-12-29T12:16:53.172Z,18.8
2017-12-29T12:17:56.064Z,18.7
2017-12-29T12:18:59.172Z,18.8
2017-12-29T12:20:02.079Z,18.7
2017-12-29T12:21:05.145Z,18.8
2017-12-29T12:22:08.006Z,18.8
2017-12-29T12:23:10.887Z,18.6
2017-12-29T12:24:13.598Z,18.6
2017-12-29T12:25:16.333Z,18.4
2017-12-29T12:26:19.158Z,18.5
2017-12-29T12:27:21.792Z,18.5
2017-12-29T12:28:24.885Z,18.4
2017-12-29T12:29:27.668Z,18.4
2017-12-29T12:30:30.336Z,18.5
2017-12-29T12:31:33.178Z,18.4
2017-12-29T12:32:35.940Z,18.4
2017-12-29T12:33:38.731Z,18.2
2017-12-29T12:34:41.565Z,18.3
2017-12-29T12:35:44.359Z,18.4
2017-12-29T12:36:47.098Z,18.4
2017-12-29T12:37:50.189Z,18.3
2017-12-29T12:38:53.347Z,18.4
2017-12-29T12:39:56.059Z,18.2
2017-12-29T12:40:59.006Z,18.4
2017-12-29T12:42:01.950Z,18.4
2017-12-29T12:43:04.767Z,18.4
2017-12-29T12:44:07.553Z,18.3
2017-12-29T12:45:10.546Z,18.4
2017-12-29T12:46:13.173Z,18.3
2017-12-29T12:47:15.817Z,18.2
2017-12-29T12:48:18.593Z,18.1
2017-12-29T12:49:21.329Z,18.1
2017-12-29T12:50:24.058Z,18.1
2017-12-29T12:51:27.046Z,17.9
2017-12-29T12:52:30.080Z,17.9
2017-12-29T12:53:32.843Z,17.9
2017-12-29T12:54:35.636Z,17.9
2017-12-29T12:55:38.257Z,17.9
2017-12-29T12:56:41.883Z,17.9
2017-12-29T12:57:47.141Z,17.9
2017-12-29T12:58:49.821Z,17.8
2017-12-29T12:59:52.688Z,17.8
2017-12-29T13:00:56.048Z,17.9
2017-12-29T13:01:58.665Z,17.8
2017-12-29T13:03:01.714Z,18.1
2017-12-29T13:04:04.344Z,18.1
2017-12-29T13:05:06.991Z,18.1
2017-12-29T13:06:09.739Z,18.1
2017-12-29T13:07:12.338Z,18.1
2017-12-29T13:08:14.914Z,18.1
2017-12-29T13:09:17.690Z,18
2017-12-29T13:10:21.327Z,17.9
2017-12-29T13:11:24.119Z,18.2
2017-12-29T13:12:26.839Z,18.1
2017-12-29T13:13:29.924Z,18.1
2017-12-29T13:14:32.659Z,17.9
2017-12-29T13:15:35.504Z,17.9
2017-12-29T13:16:38.134Z,18
2017-12-29T13:17:41.062Z,17.9
2017-12-29T13:18:43.906Z,17.8
2017-12-29T13:19:46.597Z,17.7
2017-12-29T13:20:49.451Z,17.8
2017-12-29T13:21:52.113Z,17.8
2017-12-29T13:22:55.055Z,17.7
2017-12-29T13:23:57.729Z,17.7
2017-12-29T13:25:00.566Z,17.7
2017-12-29T13:26:03.475Z,17.7
2017-12-29T13:27:06.446Z,17.8
2017-12-29T13:28:14.533Z,17.8
2017-12-29T13:29:18.282Z,17.8
2017-12-29T13:30:21.167Z,17.8
2017-12-29T13:31:23.918Z,17.6
2017-12-29T13:32:26.655Z,17.6
2017-12-29T13:33:29.495Z,17.6
2017-12-29T13:34:32.652Z,17.6
2017-12-29T13:35:37.283Z,17.7
2017-12-29T13:36:40.049Z,17.6
2017-12-29T13:37:42.900Z,17.6
2017-12-29T13:38:45.676Z,17.6
2017-12-29T13:39:48.353Z,17.6
2017-12-29T13:40:51.063Z,17.6
2017-12-29T13:41:53.739Z,17.5
2017-12-29T13:42:56.577Z,17.6
2017-12-29T13:43:59.857Z,17.6
2017-12-29T13:45:02.773Z,17.7
2017-12-29T13:46:06.061Z,17.6
2017-12-29T13:47:09.300Z,17.7
2017-12-29T13:48:11.995Z,17.7
2017-12-29T13:49:14.796Z,17.4
2017-12-29T13:50:17.792Z,17.5
2017-12-29T13:51:23.780Z,17.6
2017-12-29T13:52:26.669Z,17.5
2017-12-29T13:53:30.989Z,17.5
2017-12-29T13:54:34.269Z,17.6
2017-12-29T13:55:37.247Z,17.8
2017-12-29T13:56:40.307Z,17.7
2017-12-29T13:57:43.002Z,17.6
2017-12-29T13:58:45.792Z,17.6
2017-12-29T13:59:48.667Z,17.6
2017-12-29T14:00:51.450Z,17.6
2017-12-29T14:01:54.186Z,17.7
2017-12-29T14:02:56.815Z,17.7
2017-12-29T14:03:59.648Z,17.5
2017-12-29T14:05:02.488Z,17.5
2017-12-29T14:06:05.474Z,17.4
2017-12-29T14:07:08.351Z,17.6
2017-12-29T14:08:11.858Z,17.6
2017-12-29T14:09:14.636Z,17.5
2017-12-29T14:10:17.436Z,17.4
2017-12-29T14:11:20.221Z,17.4
2017-12-29T14:12:22.815Z,17.4
2017-12-29T14:13:25.528Z,17.5
2017-12-29T14:14:28.226Z,17.5
2017-12-29T14:15:31.028Z,17.5
2017-12-29T14:16:33.863Z,17.5
2017-12-29T14:17:36.488Z,17.5
2017-12-29T14:18:39.476Z,17.6
2017-12-29T14:19:42.083Z,17.6
2017-12-29T14:20:44.772Z,17.6
2017-12-29T14:21:47.791Z,17.6
2017-12-29T14:22:50.808Z,17.3
2017-12-29T14:23:53.541Z,17.5
2017-12-29T14:24:57.091Z,17.5
2017-12-29T14:25:59.768Z,17.5
2017-12-29T14:27:02.645Z,17.4
2017-12-29T14:28:07.180Z,17.6
2017-12-29T14:29:11.994Z,17.7
2017-12-29T14:30:14.780Z,17.6
2017-12-29T14:31:17.466Z,17.6
2017-12-29T14:32:20.397Z,17.5
2017-12-29T14:33:23.178Z,17.5
2017-12-29T14:34:26.066Z,17.5
2017-12-29T14:35:28.983Z,17.5
2017-12-29T14:36:31.696Z,17.5
2017-12-29T14:37:35.294Z,17.5
2017-12-29T14:38:38.128Z,17.4
2017-12-29T14:39:41.005Z,17.5
2017-12-29T14:40:43.649Z,17.5
2017-12-29T14:41:46.276Z,17.3
2017-12-29T14:42:48.981Z,17.4
2017-12-29T14:43:51.971Z,17.4
2017-12-29T14:44:59.458Z,17.5
2017-12-29T14:46:03.695Z,17.4
2017-12-29T14:48:15.374Z,17.4